Flight Track Log - Related Links

Times and Time Zones

All times are in EDT time to prevent confusion due to time zone crossing. See the EMD21 flight status page for this flight to view local times or setup timezone preferences in your user account.

Time Position Orientation Groundspeed Altitude Reporting Facility
EDT Latitude Longitude Course Direction KTS MPH feet Rate Location/Type
Mon 12:57:50 PM 34.2253 -97.1497 344° North 222 255 3,200  Level Fort Worth Center
Mon 12:58:00 PM 34.4495 -97.2228 344° North  Level FlightAware Approximate
Mon 12:58:50 PM 34.2775 -97.1647 347° North 201 231 4,400  Level Fort Worth Center
Mon 12:59:00 PM 34.5021 -97.2410 344° North  Level FlightAware Approximate
Mon 12:59:50 PM 34.3297 -97.1744 351° North 191 220 5,100  Level Fort Worth Center
Mon 01:00:50 PM 34.3861 -97.1919 346° North 191 220 5,900 400 Climbing Fort Worth Center
Mon 01:01:50 PM 34.4425 -97.2222 336° Northwest 207 238 5,900  Level Fort Worth Center
Mon 01:02:50 PM 34.5092 -97.2422 346° North 227 261 5,900  Level Fort Worth Center
Mon 01:03:50 PM 34.5717 -97.2647 343° North 232 267 5,900  Level Fort Worth Center
Mon 01:04:50 PM 34.6344 -97.2925 340° North 238 274 5,900  Level Fort Worth Center
Mon 01:05:50 PM 34.6969 -97.3175 342° North 238 274 5,900  Level Fort Worth Center
Mon 01:06:50 PM 34.7639 -97.3428 343° North 238 274 5,900 65 Level Fort Worth Center
Mon 01:07:23 PM 34.7992 -97.3553 344° North 242 278 6,000 74 Climbing Fort Worth Center
Mon 01:08:11 PM 34.8472 -97.3781 339° North 239 275 6,000 -69 Level Fort Worth Center
Mon 01:08:50 PM 34.8889 -97.3908 346° North 238 274 5,900 -82 Descending Fort Worth Center
Mon 01:09:24 PM 34.9244 -97.4058 341° North 238 274 5,900  Level Fort Worth Center
Mon 01:10:25 PM 34.9850 -97.4364 338° Northwest 237 273 5,900  Level Fort Worth Center
Mon 01:11:19 PM 35.0369 -97.4744 329° Northwest 232 267 5,900 71 Level Fort Worth Center
Mon 01:11:50 PM 35.0683 -97.4897 338° Northwest 233 268 6,000  Climbing Fort Worth Center
Mon 01:12:26 PM 35.0997 -97.5125 329° Northwest 235 270 5,900 -309 Descending Fort Worth Center
Mon 01:13:27 PM 35.1581 -97.5506 332° Northwest 238 274 5,500 -550 Descending Fort Worth Center
Mon 01:14:15 PM 35.2058 -97.5839 330° Northwest 234 269 4,900 -795 Descending Fort Worth Center
Mon 01:14:50 PM 35.2392 -97.6017 336° Northwest 233 268 4,400 -716 Descending Fort Worth Center
Mon 01:15:22 PM 35.2683 -97.6194 334° Northwest 232 267 4,100 -261 Descending Fort Worth Center
Mon 01:16:22 PM 35.3289 -97.6425 343° North 222 255 4,000 -99 Descending Fort Worth Center
Mon 01:17:23 PM 35.3914 -97.6503 354° North 227 261 3,900 -590 Descending Fort Worth Center
Mon 01:18:24 PM 35.4478 -97.6506 360° North 179 206 2,800 -942 Descending Fort Worth Center
Mon 01:19:24 PM 35.4894 -97.6481 North 136 157 2,000 -575 Descending Fort Worth Center
Mon 01:20:50 PM 35.5500 -97.6483 360° North 151 174 1,400 1,644 Descending Fort Worth Center
Mon 01:21:50 PM 35.5917 -97.6483 360° North 151 174 6,000 4,600 Climbing Fort Worth Center

Login

Don't have an account? Register now (free) for customized features, flight alerts, and more!